Aviation Digital Data Service (ADDS)

Output produced by METARs form (1933 UTC 19 April 2014)
found at http://aviationweather.gov/adds/metars/
 
KPBG 191728Z 1918/2018 33012G20KT P6SM BKN045 
     FM200000 33004KT P6SM SKC 
     FM201400 13009KT P6SM SKC